Weogufka, Alabama
Current Conditions -  °F | °C
As of 2:35 AM on Saturday 01 Nov 2014 (Local Time) from KSCD Reporting Station
Scattered Clouds Scattered Clouds  
Wind Chill: 33°   Ceiling: Unl
Heat Index: 38°   Visibility: 10mi
Dew Point: 26°   Wind: 6mph
Humidity: 63%   Direction: 310°NW
Pressure: 30.12"   Gusts: NA
Location:  33.02°N, 86.31°W
Report Text: KSCD 010735Z AUTO 31005KT 10SM SCT120 03/M03 A3012 RMK AO2 T00321033
Loading
Personal Weather Stations






























Interactive Weather Map
Tropical Storm Tracking
New forecast layout! Learn more

10-Day Weather Forecast

Advertisements
Track Severe Weather on mobile